createdAt,value
2019-01-08T00:01:53.740Z,9.07
2019-01-08T00:04:22.152Z,7.83
2019-01-08T00:06:50.593Z,10.93
2019-01-08T00:09:19.031Z,7.97
2019-01-08T00:11:47.487Z,8.90
2019-01-08T00:14:15.921Z,7.47
2019-01-08T00:16:44.355Z,9.47
2019-01-08T00:19:12.812Z,7.97
2019-01-08T00:21:41.309Z,10.17
2019-01-08T00:24:09.738Z,9.83
2019-01-08T00:26:38.160Z,11.83
2019-01-08T00:29:06.607Z,7.50
2019-01-08T00:31:35.048Z,8.87
2019-01-08T00:34:03.497Z,8.13
2019-01-08T00:36:31.939Z,7.73
2019-01-08T00:39:00.399Z,8.67
2019-01-08T00:41:28.803Z,9.20
2019-01-08T00:43:57.258Z,8.97
2019-01-08T00:46:25.686Z,9.47
2019-01-08T00:48:54.223Z,12.40
2019-01-08T00:51:22.662Z,12.47
2019-01-08T00:53:51.132Z,11.80
2019-01-08T00:56:19.647Z,18.07
2019-01-08T00:58:51.596Z,15.03
2019-01-08T01:01:18.356Z,19.00
2019-01-08T01:03:46.795Z,19.33
2019-01-08T01:06:15.261Z,10.10
2019-01-08T01:08:43.692Z,6.50
2019-01-08T01:11:12.147Z,7.60
2019-01-08T01:13:40.583Z,6.73
2019-01-08T01:16:09.031Z,7.17
2019-01-08T01:18:37.544Z,6.37
2019-01-08T01:21:06.043Z,8.47
2019-01-08T01:23:34.493Z,8.40
2019-01-08T01:26:02.955Z,12.70
2019-01-08T01:28:31.379Z,5.73
2019-01-08T01:30:59.826Z,10.23
2019-01-08T01:33:28.250Z,7.50
2019-01-08T01:35:56.683Z,6.77
2019-01-08T01:38:25.131Z,7.33
2019-01-08T01:40:53.563Z,7.57
2019-01-08T01:43:22.004Z,9.03
2019-01-08T01:45:50.439Z,8.07
2019-01-08T01:48:18.883Z,8.53
2019-01-08T01:50:47.292Z,9.10
2019-01-08T01:53:15.755Z,10.20
2019-01-08T01:55:44.186Z,8.83
2019-01-08T01:58:12.635Z,5.83
2019-01-08T02:00:41.055Z,8.07
2019-01-08T02:03:09.504Z,10.67
2019-01-08T02:05:38.203Z,10.20
2019-01-08T02:08:06.665Z,11.60
2019-01-08T02:10:35.103Z,12.23
2019-01-08T02:13:03.546Z,11.60
2019-01-08T02:15:32.039Z,12.23
2019-01-08T02:18:00.493Z,16.43
2019-01-08T02:20:28.911Z,11.50
2019-01-08T02:22:57.332Z,15.00
2019-01-08T02:25:25.853Z,11.53
2019-01-08T02:27:54.273Z,12.37
2019-01-08T02:30:22.734Z,17.30
2019-01-08T02:32:51.162Z,17.87
2019-01-08T02:35:19.611Z,15.33
2019-01-08T02:37:48.026Z,14.90
2019-01-08T02:40:16.489Z,18.60
2019-01-08T02:42:44.949Z,14.13
2019-01-08T02:45:13.461Z,17.00
2019-01-08T02:47:41.884Z,19.17
2019-01-08T02:50:10.411Z,13.90
2019-01-08T02:52:38.825Z,17.07
2019-01-08T02:55:07.339Z,15.60
2019-01-08T02:57:35.762Z,13.50
2019-01-08T03:00:06.130Z,11.97
2019-01-08T03:02:34.601Z,17.03
2019-01-08T03:05:03.072Z,14.87
2019-01-08T03:07:31.495Z,13.10
2019-01-08T03:09:59.951Z,13.43
2019-01-08T03:12:28.443Z,13.43
2019-01-08T03:14:56.907Z,16.87
2019-01-08T03:17:25.345Z,15.27
2019-01-08T03:19:53.763Z,16.23
2019-01-08T03:22:22.296Z,15.23
2019-01-08T03:24:50.716Z,18.80
2019-01-08T03:27:19.162Z,14.13
2019-01-08T03:29:47.586Z,16.63
2019-01-08T03:32:16.120Z,12.43
2019-01-08T03:34:44.527Z,17.87
2019-01-08T03:37:12.987Z,14.97
2019-01-08T03:39:41.410Z,20.47
2019-01-08T03:42:09.856Z,14.60
2019-01-08T03:44:38.293Z,13.27
2019-01-08T03:47:06.748Z,15.73
2019-01-08T03:49:35.195Z,19.90
2019-01-08T03:52:03.645Z,17.63
2019-01-08T03:54:32.078Z,22.03
2019-01-08T03:57:00.602Z,15.10
2019-01-08T03:59:29.094Z,17.67
2019-01-08T04:01:57.565Z,18.17
2019-01-08T04:04:25.979Z,18.20
2019-01-08T04:06:54.415Z,22.70
2019-01-08T04:09:22.858Z,16.83
2019-01-08T04:11:51.303Z,17.57
2019-01-08T04:14:19.747Z,17.93
2019-01-08T04:16:48.174Z,21.90
2019-01-08T04:19:16.688Z,17.07
2019-01-08T04:21:45.114Z,20.27
2019-01-08T04:24:13.575Z,22.67
2019-01-08T04:26:42.003Z,19.17
2019-01-08T04:29:10.465Z,16.43
2019-01-08T04:31:38.882Z,22.83
2019-01-08T04:34:07.326Z,21.47
2019-01-08T04:36:35.747Z,17.10
2019-01-08T04:39:05.131Z,18.27
2019-01-08T04:41:33.563Z,19.60
2019-01-08T04:44:01.986Z,17.20
2019-01-08T04:46:30.445Z,20.67
2019-01-08T04:48:58.860Z,21.70
2019-01-08T04:51:27.307Z,22.63
2019-01-08T04:53:55.736Z,19.43
2019-01-08T04:56:24.186Z,20.00
2019-01-08T04:58:52.630Z,19.40
2019-01-08T05:01:21.084Z,25.47
2019-01-08T05:03:49.519Z,16.60
2019-01-08T05:06:17.967Z,21.20
2019-01-08T05:08:46.402Z,18.83
2019-01-08T05:11:14.830Z,21.87
2019-01-08T05:13:43.321Z,21.27
2019-01-08T05:16:11.771Z,18.97
2019-01-08T05:18:40.206Z,19.07
2019-01-08T05:21:08.745Z,23.30
2019-01-08T05:23:37.163Z,20.40
2019-01-08T05:26:05.604Z,24.33
2019-01-08T05:28:34.047Z,25.43
2019-01-08T05:31:02.485Z,25.37
2019-01-08T05:33:30.926Z,18.87
2019-01-08T05:35:59.389Z,16.53
2019-01-08T05:38:27.814Z,17.83
2019-01-08T05:40:56.265Z,22.63
2019-01-08T05:43:27.630Z,15.27
2019-01-08T05:45:56.101Z,18.60
2019-01-08T05:48:24.531Z,16.90
2019-01-08T05:50:52.963Z,19.70
2019-01-08T05:53:21.399Z,22.07
2019-01-08T05:55:49.823Z,23.40
2019-01-08T05:58:18.274Z,20.20
2019-01-08T06:00:46.700Z,19.63
2019-01-08T06:03:15.159Z,19.43
2019-01-08T06:05:43.595Z,19.43
2019-01-08T06:08:12.062Z,17.70
2019-01-08T06:10:40.575Z,20.77
2019-01-08T06:13:08.337Z,16.17
2019-01-08T06:15:36.748Z,19.20
2019-01-08T06:18:05.239Z,18.97
2019-01-08T06:20:33.673Z,21.80
2019-01-08T06:23:03.623Z,21.70
2019-01-08T06:25:32.078Z,19.07
2019-01-08T06:28:00.564Z,21.33
2019-01-08T06:30:28.978Z,21.13
2019-01-08T06:32:57.414Z,19.00
2019-01-08T06:35:25.864Z,21.37
2019-01-08T06:37:54.286Z,18.10
2019-01-08T06:40:22.740Z,22.30
2019-01-08T06:42:51.179Z,23.00
2019-01-08T06:45:19.631Z,20.60
2019-01-08T06:47:48.045Z,24.87
2019-01-08T06:50:16.499Z,25.77
2019-01-08T06:52:44.949Z,29.73
2019-01-08T06:55:13.419Z,26.23
2019-01-08T06:57:41.829Z,19.97
2019-01-08T07:00:10.692Z,19.47
2019-01-08T07:02:39.110Z,15.77
2019-01-08T07:05:07.636Z,16.20
2019-01-08T07:07:36.067Z,18.17
2019-01-08T07:10:06.233Z,18.80
2019-01-08T07:12:34.684Z,20.20
2019-01-08T07:15:03.116Z,19.47
2019-01-08T07:17:31.579Z,19.40
2019-01-08T07:20:00.035Z,17.37
2019-01-08T07:22:28.551Z,19.90
2019-01-08T07:24:56.994Z,18.27
2019-01-08T07:27:25.435Z,23.70
2019-01-08T07:29:53.879Z,22.47
2019-01-08T07:32:22.319Z,17.07
2019-01-08T07:34:50.828Z,20.27
2019-01-08T07:37:19.276Z,18.80
2019-01-08T07:39:47.715Z,16.33
2019-01-08T07:42:16.167Z,18.97
2019-01-08T07:44:44.609Z,25.43
2019-01-08T07:47:13.095Z,17.20
2019-01-08T07:49:41.511Z,17.17
2019-01-08T07:52:09.976Z,18.07
2019-01-08T07:54:38.431Z,18.87
2019-01-08T07:57:07.019Z,16.43
2019-01-08T07:59:35.436Z,19.27
2019-01-08T08:02:03.913Z,16.77
2019-01-08T08:04:32.339Z,22.60
2019-01-08T08:07:00.761Z,19.57
2019-01-08T08:09:29.233Z,19.60
2019-01-08T08:11:57.664Z,17.10
2019-01-08T08:14:26.127Z,18.70
2019-01-08T08:16:54.558Z,15.37
2019-01-08T08:19:23.012Z,21.17
2019-01-08T08:21:51.451Z,15.20
2019-01-08T08:24:19.899Z,17.53
2019-01-08T08:26:48.337Z,17.40
2019-01-08T08:29:16.789Z,18.33
2019-01-08T08:31:45.305Z,13.60
2019-01-08T08:34:13.758Z,14.20
2019-01-08T08:36:42.184Z,16.13
2019-01-08T08:39:10.650Z,17.93
2019-01-08T08:41:39.150Z,20.30
2019-01-08T08:44:07.657Z,10.60
2019-01-08T08:46:36.085Z,18.80
2019-01-08T08:49:04.594Z,17.13
2019-01-08T08:51:33.098Z,16.20
2019-01-08T08:54:01.705Z,16.30
2019-01-08T08:56:30.168Z,15.23
2019-01-08T08:58:58.627Z,13.97
2019-01-08T09:01:27.060Z,18.93
2019-01-08T09:03:55.479Z,19.70
2019-01-08T09:06:23.934Z,16.23
2019-01-08T09:08:52.433Z,17.83
2019-01-08T09:11:20.964Z,14.97
2019-01-08T09:13:49.458Z,17.33
2019-01-08T09:16:17.969Z,11.97
2019-01-08T09:18:46.396Z,13.27
2019-01-08T09:21:14.857Z,16.33
2019-01-08T09:23:43.292Z,12.43
2019-01-08T09:26:11.738Z,19.07
2019-01-08T09:28:40.166Z,16.63
2019-01-08T09:31:15.242Z,18.17
2019-01-08T09:33:38.799Z,14.13
2019-01-08T09:36:07.237Z,17.87
2019-01-08T09:38:35.666Z,17.03
2019-01-08T09:41:04.171Z,15.30
2019-01-08T09:43:32.648Z,17.00
2019-01-08T09:46:01.091Z,13.93
2019-01-08T09:48:29.540Z,11.80
2019-01-08T09:50:57.968Z,13.83
2019-01-08T09:53:26.416Z,14.60
2019-01-08T09:55:54.863Z,14.47
2019-01-08T09:58:24.642Z,26.80
2019-01-08T10:00:53.187Z,13.27
2019-01-08T10:03:21.627Z,15.87
2019-01-08T10:05:50.051Z,15.33
2019-01-08T10:08:18.510Z,15.83
2019-01-08T10:10:46.946Z,20.10
2019-01-08T10:13:15.391Z,15.70
2019-01-08T10:15:43.843Z,15.60
2019-01-08T10:18:12.293Z,16.67
2019-01-08T10:20:40.731Z,16.70
2019-01-08T10:23:10.219Z,15.00
2019-01-08T10:25:38.915Z,16.73
2019-01-08T10:28:07.373Z,15.70
2019-01-08T10:30:35.803Z,16.33
2019-01-08T10:33:04.231Z,16.43
2019-01-08T10:35:32.681Z,18.73
2019-01-08T10:38:01.177Z,18.37
2019-01-08T10:40:29.632Z,17.67
2019-01-08T10:42:58.064Z,21.20
2019-01-08T10:45:26.686Z,20.77
2019-01-08T10:47:55.196Z,22.53
2019-01-08T10:50:23.656Z,18.07
2019-01-08T10:52:52.111Z,21.07
2019-01-08T10:55:20.549Z,14.80
2019-01-08T10:57:48.970Z,15.57
2019-01-08T11:00:17.421Z,12.30
2019-01-08T11:02:45.839Z,15.10
2019-01-08T11:05:14.411Z,15.13
2019-01-08T11:07:42.885Z,16.00
2019-01-08T11:10:11.354Z,15.00
2019-01-08T11:12:39.785Z,17.10
2019-01-08T11:15:08.704Z,12.13
2019-01-08T11:17:37.216Z,17.23
2019-01-08T11:20:08.565Z,16.67
2019-01-08T11:22:36.987Z,15.10
2019-01-08T11:25:06.195Z,15.10
2019-01-08T11:27:34.624Z,16.20
2019-01-08T11:30:03.071Z,19.90
2019-01-08T11:32:31.507Z,19.73
2019-01-08T11:35:00.168Z,17.53
2019-01-08T11:37:28.688Z,16.67
2019-01-08T11:39:57.156Z,13.67
2019-01-08T11:42:25.603Z,18.60
2019-01-08T11:44:54.044Z,20.47
2019-01-08T11:47:22.526Z,17.87
2019-01-08T11:49:51.039Z,20.37
2019-01-08T11:52:19.485Z,24.37
2019-01-08T11:54:47.914Z,20.37
2019-01-08T11:57:16.363Z,22.73
2019-01-08T11:59:44.815Z,17.10
2019-01-08T12:02:13.261Z,21.33
2019-01-08T12:04:41.732Z,20.03
2019-01-08T12:07:10.174Z,19.50
2019-01-08T12:09:38.604Z,23.10
2019-01-08T12:12:07.146Z,19.77
2019-01-08T12:14:35.592Z,19.67
2019-01-08T12:17:04.124Z,16.80
2019-01-08T12:19:32.563Z,15.03
2019-01-08T12:22:01.019Z,17.03
2019-01-08T12:24:29.440Z,17.07
2019-01-08T12:26:57.896Z,17.13
2019-01-08T12:29:26.398Z,25.77
2019-01-08T12:31:55.886Z,19.27
2019-01-08T12:34:24.437Z,22.47
2019-01-08T12:36:52.870Z,17.57
2019-01-08T12:39:21.341Z,18.57
2019-01-08T12:41:49.771Z,18.53
2019-01-08T12:44:18.223Z,15.53
2019-01-08T12:46:46.678Z,15.73
2019-01-08T12:49:15.218Z,14.67
2019-01-08T12:51:43.695Z,16.03
2019-01-08T12:54:12.161Z,15.90
2019-01-08T12:56:40.580Z,14.47
2019-01-08T12:59:09.020Z,18.60
2019-01-08T13:01:37.483Z,15.37
2019-01-08T13:04:05.929Z,15.73
2019-01-08T13:06:34.364Z,21.10
2019-01-08T13:09:04.662Z,16.70
2019-01-08T13:11:33.079Z,18.40
2019-01-08T13:14:01.565Z,19.00
2019-01-08T13:16:30.041Z,20.00
2019-01-08T13:18:58.472Z,19.67
2019-01-08T13:21:26.955Z,23.60
2019-01-08T13:23:55.402Z,23.23
2019-01-08T13:26:23.934Z,22.50
2019-01-08T13:28:52.364Z,21.73
2019-01-08T13:31:20.830Z,17.97
2019-01-08T13:33:49.294Z,18.20
2019-01-08T13:36:17.751Z,23.13
2019-01-08T13:38:47.057Z,12.67
2019-01-08T13:41:15.595Z,19.97
2019-01-08T13:43:44.021Z,21.03
2019-01-08T13:46:12.479Z,15.83
2019-01-08T13:48:40.920Z,17.53
2019-01-08T13:51:09.350Z,19.37
2019-01-08T13:53:37.783Z,24.43
2019-01-08T13:56:06.329Z,25.03
2019-01-08T13:58:34.769Z,24.60
2019-01-08T14:01:03.290Z,22.03
2019-01-08T14:03:31.804Z,19.17
2019-01-08T14:06:00.268Z,21.43
2019-01-08T14:08:28.786Z,14.40
2019-01-08T14:10:57.254Z,20.53
2019-01-08T14:13:25.718Z,22.93
2019-01-08T14:15:54.142Z,13.27
2019-01-08T14:18:22.592Z,16.27
2019-01-08T14:20:51.028Z,11.93
2019-01-08T14:23:19.478Z,13.77
2019-01-08T14:25:47.965Z,11.10
2019-01-08T14:28:16.413Z,13.17
2019-01-08T14:30:44.839Z,16.93
2019-01-08T14:33:13.303Z,12.30
2019-01-08T14:35:41.742Z,15.63
2019-01-08T14:38:10.185Z,15.73
2019-01-08T14:40:38.848Z,13.73
2019-01-08T14:43:13.903Z,14.60
2019-01-08T14:45:37.535Z,17.10
2019-01-08T14:48:05.993Z,16.77
2019-01-08T14:50:34.423Z,15.53
2019-01-08T14:53:02.878Z,15.77
2019-01-08T14:55:31.326Z,18.73
2019-01-08T14:57:59.786Z,20.10
2019-01-08T15:00:28.276Z,21.53
2019-01-08T15:02:56.707Z,19.57
2019-01-08T15:05:25.157Z,23.95
2019-01-08T15:07:53.592Z,20.77
2019-01-08T15:10:22.086Z,26.73
2019-01-08T15:12:50.510Z,22.23
2019-01-08T15:15:19.053Z,26.63
2019-01-08T15:17:47.477Z,24.40
2019-01-08T15:20:15.952Z,23.13
2019-01-08T15:22:44.415Z,27.53
2019-01-08T15:25:12.865Z,24.33
2019-01-08T15:27:41.321Z,30.57
2019-01-08T15:30:10.425Z,17.13
2019-01-08T15:32:38.926Z,19.33
2019-01-08T15:35:07.443Z,17.43
2019-01-08T15:37:35.876Z,14.90
2019-01-08T15:40:05.894Z,12.90
2019-01-08T15:42:34.351Z,11.37
2019-01-08T15:45:02.846Z,15.60
2019-01-08T15:47:31.350Z,13.60
2019-01-08T15:49:59.808Z,16.17
2019-01-08T15:52:33.049Z,18.10
2019-01-08T15:55:01.491Z,13.97
2019-01-08T15:57:29.941Z,16.80
2019-01-08T15:59:58.381Z,20.90
2019-01-08T16:02:26.892Z,14.77
2019-01-08T16:04:55.341Z,13.63
2019-01-08T16:07:23.794Z,19.97
2019-01-08T16:09:52.327Z,19.60
2019-01-08T16:12:20.847Z,20.97
2019-01-08T16:14:49.359Z,23.67
2019-01-08T16:17:17.794Z,24.13
2019-01-08T16:19:46.301Z,17.27
2019-01-08T16:22:14.755Z,17.13
2019-01-08T16:24:43.188Z,15.47
2019-01-08T16:27:11.631Z,28.40
2019-01-08T16:29:40.066Z,25.90
2019-01-08T16:32:08.524Z,23.30
2019-01-08T16:34:36.979Z,25.10
2019-01-08T16:37:05.466Z,17.17
2019-01-08T16:39:33.926Z,23.83
2019-01-08T16:42:02.477Z,19.80
2019-01-08T16:44:30.918Z,17.17
2019-01-08T16:46:59.447Z,22.07
2019-01-08T16:49:27.880Z,19.53
2019-01-08T16:51:56.435Z,17.70
2019-01-08T16:54:24.931Z,20.07
2019-01-08T16:56:53.357Z,17.40
2019-01-08T16:59:21.832Z,17.10
2019-01-08T17:01:50.262Z,24.70
2019-01-08T17:04:18.720Z,18.57
2019-01-08T17:06:47.147Z,16.67
2019-01-08T17:09:15.681Z,18.67
2019-01-08T17:11:44.208Z,21.13
2019-01-08T17:14:12.741Z,21.20
2019-01-08T17:16:41.252Z,16.67
2019-01-08T17:19:09.696Z,19.63
2019-01-08T17:21:38.186Z,20.50
2019-01-08T17:24:06.639Z,18.97
2019-01-08T17:26:35.168Z,18.80
2019-01-08T17:29:03.680Z,17.20
2019-01-08T17:31:32.109Z,23.53
2019-01-08T17:34:00.603Z,24.77
2019-01-08T17:36:29.054Z,20.87
2019-01-08T17:38:57.492Z,22.07
2019-01-08T17:41:25.948Z,24.13
2019-01-08T17:43:54.381Z,19.50
2019-01-08T17:46:22.891Z,23.10
2019-01-08T17:48:51.344Z,21.20
2019-01-08T17:51:19.807Z,23.33
2019-01-08T17:53:48.261Z,16.20
2019-01-08T17:56:16.774Z,24.70
2019-01-08T17:58:45.255Z,21.80
2019-01-08T18:01:22.111Z,15.83
2019-01-08T18:03:50.554Z,19.00
2019-01-08T18:06:19.020Z,22.97
2019-01-08T18:08:47.452Z,17.20
2019-01-08T18:11:15.914Z,22.50
2019-01-08T18:13:44.399Z,18.87
2019-01-08T18:16:12.852Z,17.03
2019-01-08T18:18:41.351Z,14.50
2019-01-08T18:21:09.824Z,14.37
2019-01-08T18:23:38.251Z,23.73
2019-01-08T18:26:06.694Z,23.27
2019-01-08T18:28:35.167Z,15.40
2019-01-08T18:31:03.641Z,16.40
2019-01-08T18:33:32.171Z,21.80
2019-01-08T18:36:00.774Z,19.93
2019-01-08T18:38:29.223Z,21.30
2019-01-08T18:40:57.659Z,14.60
2019-01-08T18:43:26.138Z,18.30
2019-01-08T18:45:54.565Z,20.67
2019-01-08T18:48:23.397Z,14.90
2019-01-08T18:50:51.892Z,22.23
2019-01-08T18:53:20.353Z,14.63
2019-01-08T18:55:48.768Z,15.70
2019-01-08T18:58:17.235Z,14.97
2019-01-08T19:00:45.681Z,13.80
2019-01-08T19:03:14.157Z,13.97
2019-01-08T19:05:42.669Z,15.93
2019-01-08T19:08:11.208Z,14.77
2019-01-08T19:10:39.636Z,16.90
2019-01-08T19:13:08.292Z,21.53
2019-01-08T19:15:36.739Z,20.10
2019-01-08T19:18:05.434Z,14.50
2019-01-08T19:20:33.900Z,18.17
2019-01-08T19:23:02.370Z,15.30
2019-01-08T19:25:30.820Z,18.93
2019-01-08T19:27:59.315Z,21.60
2019-01-08T19:30:27.811Z,19.70
2019-01-08T19:32:56.251Z,18.30
2019-01-08T19:35:31.610Z,16.20
2019-01-08T19:37:54.910Z,18.73
2019-01-08T19:40:23.383Z,20.13
2019-01-08T19:42:51.899Z,20.93
2019-01-08T19:45:22.784Z,20.00
2019-01-08T19:47:51.192Z,12.40
2019-01-08T19:50:20.074Z,15.83
2019-01-08T19:52:48.523Z,16.33
2019-01-08T19:55:16.990Z,19.43
2019-01-08T19:57:45.419Z,15.63
2019-01-08T20:00:13.911Z,17.23
2019-01-08T20:02:42.411Z,19.20
2019-01-08T20:05:10.925Z,18.80
2019-01-08T20:07:39.511Z,25.73
2019-01-08T20:10:08.129Z,22.13
2019-01-08T20:12:36.638Z,17.17
2019-01-08T20:15:07.421Z,20.00
2019-01-08T20:17:35.946Z,14.57
2019-01-08T20:20:05.143Z,17.27
2019-01-08T20:22:33.597Z,18.10
2019-01-08T20:25:02.034Z,16.07
2019-01-08T20:27:32.519Z,13.37
2019-01-08T20:30:00.659Z,15.97
2019-01-08T20:32:29.305Z,17.60
2019-01-08T20:34:57.796Z,22.77
2019-01-08T20:37:26.234Z,23.83
2019-01-08T20:39:54.693Z,20.10
2019-01-08T20:42:23.289Z,19.83
2019-01-08T20:44:51.721Z,22.43
2019-01-08T20:47:20.188Z,16.27
2019-01-08T20:49:48.620Z,15.83
2019-01-08T20:52:17.064Z,14.50
2019-01-08T20:54:45.505Z,16.67
2019-01-08T20:57:13.935Z,17.17
2019-01-08T20:59:42.395Z,22.43
2019-01-08T21:02:10.830Z,19.17
2019-01-08T21:04:39.365Z,18.90
2019-01-08T21:07:07.809Z,18.80
2019-01-08T21:09:36.269Z,21.40
2019-01-08T21:12:04.844Z,16.73
2019-01-08T21:14:33.441Z,14.97
2019-01-08T21:17:01.941Z,12.10
2019-01-08T21:19:30.471Z,15.43
2019-01-08T21:21:58.924Z,15.73
2019-01-08T21:24:28.777Z,17.37
2019-01-08T21:26:57.488Z,23.60
2019-01-08T21:29:25.936Z,16.63
2019-01-08T21:31:54.351Z,19.70
2019-01-08T21:34:22.814Z,20.87
2019-01-08T21:36:51.316Z,19.00
2019-01-08T21:39:19.775Z,18.27
2019-01-08T21:41:48.315Z,16.20
2019-01-08T21:44:16.833Z,18.80
2019-01-08T21:46:45.258Z,16.97
2019-01-08T21:49:13.754Z,13.93
2019-01-08T21:51:42.242Z,20.83
2019-01-08T21:54:10.675Z,22.63
2019-01-08T21:56:39.171Z,23.63
2019-01-08T21:59:07.619Z,21.03
2019-01-08T22:01:36.070Z,19.53
2019-01-08T22:04:04.508Z,13.97
2019-01-08T22:06:32.970Z,13.17
2019-01-08T22:09:01.471Z,12.77
2019-01-08T22:11:29.943Z,16.27
2019-01-08T22:13:58.393Z,13.63
2019-01-08T22:16:27.084Z,11.20
2019-01-08T22:18:55.617Z,15.47
2019-01-08T22:21:24.068Z,14.60
2019-01-08T22:23:52.496Z,15.43
2019-01-08T22:26:22.739Z,11.87
2019-01-08T22:28:51.198Z,10.67
2019-01-08T22:31:19.653Z,14.93
2019-01-08T22:33:48.149Z,11.90
2019-01-08T22:36:16.602Z,12.73
2019-01-08T22:38:45.071Z,11.97
2019-01-08T22:41:13.510Z,13.13
2019-01-08T22:43:41.964Z,17.70
2019-01-08T22:46:10.495Z,16.47
2019-01-08T22:48:39.018Z,17.73
2019-01-08T22:51:07.555Z,15.63
2019-01-08T22:53:36.022Z,13.27
2019-01-08T22:56:04.514Z,12.83
2019-01-08T22:58:33.067Z,17.07
2019-01-08T23:01:03.208Z,14.00
2019-01-08T23:03:31.754Z,17.93
2019-01-08T23:06:00.230Z,19.90
2019-01-08T23:08:28.679Z,14.13
2019-01-08T23:10:57.179Z,15.43
2019-01-08T23:13:25.763Z,14.97
2019-01-08T23:15:54.334Z,19.63
2019-01-08T23:18:23.120Z,12.50
2019-01-08T23:20:51.707Z,12.83
2019-01-08T23:23:20.141Z,9.67
2019-01-08T23:25:48.583Z,11.57
2019-01-08T23:28:17.074Z,13.27
2019-01-08T23:30:45.528Z,13.13
2019-01-08T23:33:14.015Z,16.90
2019-01-08T23:35:42.614Z,13.67
2019-01-08T23:38:11.125Z,12.60
2019-01-08T23:40:39.644Z,19.43
2019-01-08T23:43:08.139Z,17.60
2019-01-08T23:45:36.752Z,17.70
2019-01-08T23:48:05.312Z,17.10
2019-01-08T23:50:33.770Z,18.30
2019-01-08T23:53:14.037Z,16.83
2019-01-08T23:55:45.687Z,20.10
2019-01-08T23:58:32.114Z,16.83
